• Join FlightAware (Why Join?)
  • Login
  • US Flag 
12:40PM EDT


 

Airport Tracker/Info


-or-


 

Live Flight TrackerFlight Track Log ✈ 9Y-BGI ✈ 18-Apr-2013 ✈ MYNN / NAS - MKJS / MBJ

Flight Track Log - Related Links

Times and Time Zones

All times are in EDT time to prevent confusion due to time zone crossing. See the 9Y-BGI flight status page for this flight to view local times or setup timezone preferences in your user account.

Time Position Orientation Groundspeed Altitude Reporting Facility
EDT Latitude Longitude Course Direction KTS MPH feet Rate Location/Type
04:15PM 24.9569 -77.4019 175° South 440 506 4,200  Level Miami Center
04:16PM 24.8881 -77.4317 201° Southwest 340 391 7,300 3,000 Climbing Miami Center
04:17PM 24.8064 -77.4336 181° South 319 367 10,200 1,980 Climbing Miami Center
04:18PM 24.7144 -77.4283 177° South 313 360 11,300 1,860 Climbing Miami Center
04:19PM 24.6058 -77.4233 178° South 352 405 14,000 2,640 Climbing Miami Center
04:20PM 24.5395 -77.4089 175° South  Level FlightAware Approximate
04:20PM 24.4992 -77.4139 175° South 378 435 16,600  Level Miami Center
04:21PM 24.3844 -77.4086 178° South 402 463 19,000 2,100 Climbing Miami Center
04:22PM 24.2631 -77.4014 177° South 422 486 20,900 2,100 Climbing Miami Center
04:23PM 24.1272 -77.3939 177° South 433 498 23,200 2,100 Climbing Miami Center
04:24PM 24.0000 -77.3889 178° South 447 514 25,200 1,860 Climbing Miami Center
04:25PM 23.8661 -77.3792 176° South 463 533 27,000 1,680 Climbing Miami Center
04:26PM 23.7283 -77.3697 176° South 481 554 28,600 1,920 Climbing Miami Center
04:27PM 23.6092 -77.3644 178° South 488 562 30,900 2,280 Climbing Miami Center
04:29PM 23.4032 -77.3403 175° South  Level FlightAware Approximate
04:36PM 22.5801 -77.2716 176° South  Level FlightAware Approximate
04:37PM 22.4624 -77.2626 176° South  Level FlightAware Approximate
04:38PM 22.3448 -77.2536 176° South  Level FlightAware Approximate
04:39PM 22.2271 -77.2446 176° South  Level FlightAware Approximate
04:40PM 22.1095 -77.2357 176° South  Level FlightAware Approximate
04:41PM 21.9918 -77.2268 176° South  Level FlightAware Approximate
04:42PM 21.8742 -77.2178 176° South  Level FlightAware Approximate
04:43PM 21.7565 -77.2089 176° South  Level FlightAware Approximate
04:44PM 21.6389 -77.2000 176° South  Level FlightAware Approximate
04:45PM 21.5212 -77.1912 176° South  Level FlightAware Approximate
04:46PM 21.4036 -77.1823 176° South  Level FlightAware Approximate
04:47PM 21.2859 -77.1734 176° South  Level FlightAware Approximate
04:48PM 21.1682 -77.1646 176° South  Level FlightAware Approximate
04:49PM 21.0506 -77.1558 176° South  Level FlightAware Approximate
04:50PM 20.9329 -77.1470 176° South  Level FlightAware Approximate
04:51PM 20.8153 -77.1382 176° South  Level FlightAware Approximate
04:52PM 20.6976 -77.1294 176° South  Level FlightAware Approximate
04:53PM 20.5800 -77.1207 176° South  Level FlightAware Approximate
04:54PM 20.4623 -77.1120 176° South  Level FlightAware Approximate
04:55PM 20.3446 -77.1033 176° South  Level FlightAware Approximate
04:56PM 20.2290 -77.1188 205° Southwest  Level FlightAware Approximate
04:57PM 20.1223 -77.1722 205° Southwest  Level FlightAware Approximate
04:58PM 20.0139 -77.2216 203° Southwest  Level FlightAware Approximate
04:59PM 19.9049 -77.2697 202° Southwest  Level FlightAware Approximate
05:00PM 19.7959 -77.3175 202° Southwest  Level FlightAware Approximate
05:01PM 19.6868 -77.3652 202° Southwest  Level FlightAware Approximate
05:02PM 19.5800 -77.4184 205° Southwest  Level FlightAware Approximate
05:03PM 19.4731 -77.4711 202° Southwest  Level FlightAware Approximate
05:04PM 19.3641 -77.5189 202° Southwest  Level FlightAware Approximate
05:05PM 19.2551 -77.5666 202° Southwest  Level FlightAware Approximate
05:06PM 19.1462 -77.6146 203° Southwest  Level FlightAware Approximate
05:07PM 19.0381 -77.6643 205° Southwest  Level FlightAware Approximate
05:08PM 18.9314 -77.7176 205° Southwest  Level FlightAware Approximate
05:09PM 18.8240 -77.7690 203° Southwest  Level FlightAware Approximate
05:10PM 18.7152 -77.8171 198° South  Level FlightAware Approximate
05:11PM 18.6061 -77.8636 205° Southwest  Level FlightAware Approximate
05:12PM 18.5000 -77.9161 90° East  Level FlightAware Approximate
05:13PM 18.5037 -77.9134 90° East  Level Estimated
05:14PM 18.5037 -77.9134 90° East  Level Estimated
05:15PM 18.5037 -77.9134 90° East  Level Estimated
05:16PM 18.5037 -77.9134 90° East  Level Estimated
05:17PM 18.5037 -77.9134 90° East  Level Estimated
05:18PM 18.5037 -77.9134 90° East  Level Estimated
05:19PM 18.5037 -77.9134 90° East  Level Estimated
05:20PM 18.5037 -77.9134 90° East  Level Estimated
05:21PM 18.5037 -77.9134 90° East  Level Estimated